createdAt,value
2018-07-02T00:00:20.750Z,64.70
2018-07-02T00:02:49.745Z,64.40
2018-07-02T00:07:48.503Z,64.80
2018-07-02T00:10:17.515Z,65.40
2018-07-02T00:12:46.937Z,65.00
2018-07-02T00:15:16.854Z,65.20
2018-07-02T00:17:45.839Z,65.40
2018-07-02T00:20:16.568Z,65.50
2018-07-02T00:22:45.946Z,66.30
2018-07-02T00:25:14.939Z,66.00
2018-07-02T00:27:44.019Z,66.00
2018-07-02T00:30:15.061Z,66.30
2018-07-02T00:32:45.257Z,66.80
2018-07-02T00:35:14.254Z,66.70
2018-07-02T00:37:44.316Z,67.30
2018-07-02T00:40:13.542Z,67.30
2018-07-02T00:42:42.608Z,67.70
2018-07-02T00:45:12.040Z,69.00
2018-07-02T00:47:41.155Z,69.20
2018-07-02T00:52:41.883Z,70.90
2018-07-02T00:55:12.322Z,70.00
2018-07-02T00:57:43.324Z,70.10
2018-07-02T01:00:15.130Z,69.80
2018-07-02T01:02:44.430Z,69.80
2018-07-02T01:05:14.559Z,69.80
2018-07-02T01:07:44.678Z,70.30
2018-07-02T01:10:13.949Z,70.80
2018-07-02T01:12:43.680Z,69.80
2018-07-02T01:15:14.190Z,69.60
2018-07-02T01:17:43.172Z,70.20
2018-07-02T01:20:12.181Z,69.70
2018-07-02T01:22:41.163Z,69.90
2018-07-02T01:25:12.840Z,69.60
2018-07-02T01:27:43.623Z,70.30
2018-07-02T01:30:12.669Z,70.20
2018-07-02T01:32:43.543Z,70.20
2018-07-02T01:35:13.872Z,71.10
2018-07-02T01:37:43.956Z,70.70
2018-07-02T01:40:13.306Z,71.20
2018-07-02T01:42:42.863Z,71.40
2018-07-02T01:45:13.362Z,72.20
2018-07-02T01:47:44.221Z,72.50
2018-07-02T01:50:13.240Z,72.70
2018-07-02T01:52:43.974Z,72.00
2018-07-02T01:55:14.046Z,71.10
2018-07-02T01:57:45.543Z,70.70
2018-07-02T02:00:17.913Z,71.10
2018-07-02T02:02:47.774Z,70.90
2018-07-02T02:05:17.943Z,70.80
2018-07-02T02:07:47.918Z,72.40
2018-07-02T02:10:16.974Z,71.70
2018-07-02T02:12:47.664Z,71.60
2018-07-02T02:15:18.551Z,72.10
2018-07-02T02:17:50.327Z,71.90
2018-07-02T02:20:20.897Z,72.40
2018-07-02T02:22:50.776Z,73.20
2018-07-02T02:25:21.242Z,74.60
2018-07-02T02:27:51.277Z,75.30
2018-07-02T02:30:21.605Z,74.60
2018-07-02T02:32:51.062Z,73.30
2018-07-02T02:35:21.274Z,73.40
2018-07-02T02:37:50.297Z,73.30
2018-07-02T02:40:19.295Z,73.50
2018-07-02T02:42:49.312Z,73.50
2018-07-02T02:45:19.935Z,74.10
2018-07-02T02:47:50.383Z,75.40
2018-07-02T02:50:19.395Z,74.20
2018-07-02T02:52:49.121Z,73.90
2018-07-02T02:55:20.373Z,74.30
2018-07-02T02:57:51.087Z,75.20
2018-07-02T03:00:22.992Z,74.90
2018-07-02T03:02:52.087Z,75.00
2018-07-02T03:05:21.626Z,75.00
2018-07-02T03:07:50.731Z,74.50
2018-07-02T03:10:22.435Z,74.00
2018-07-02T03:12:52.473Z,73.90
2018-07-02T03:15:21.531Z,74.50
2018-07-02T03:17:52.310Z,74.40
2018-07-02T03:20:22.439Z,74.70
2018-07-02T03:22:52.031Z,74.90
2018-07-02T03:25:22.633Z,75.60
2018-07-02T03:27:51.682Z,76.10
2018-07-02T03:30:20.657Z,76.60
2018-07-02T03:32:51.151Z,77.90
2018-07-02T03:35:20.950Z,78.80
2018-07-02T03:37:50.005Z,77.30
2018-07-02T03:40:19.106Z,77.40
2018-07-02T03:42:49.768Z,76.40
2018-07-02T03:45:19.292Z,77.50
2018-07-02T03:47:49.850Z,76.50
2018-07-02T03:50:19.769Z,76.90
2018-07-02T03:52:48.786Z,77.30
2018-07-02T03:55:24.432Z,77.00
2018-07-02T03:57:57.730Z,76.80
2018-07-02T04:00:26.758Z,76.70
2018-07-02T04:02:55.738Z,77.30
2018-07-02T04:05:25.510Z,78.00
2018-07-02T04:07:55.381Z,79.50
2018-07-02T04:10:24.379Z,78.80
2018-07-02T04:12:53.465Z,79.10
2018-07-02T04:15:22.506Z,78.50
2018-07-02T04:17:53.125Z,79.10
2018-07-02T04:20:22.843Z,80.40
2018-07-02T04:22:52.019Z,80.60
2018-07-02T04:25:21.013Z,81.20
2018-07-02T04:27:50.023Z,80.40
2018-07-02T04:30:28.176Z,81.20
2018-07-02T04:32:57.192Z,80.50
2018-07-02T04:35:27.989Z,79.70
2018-07-02T04:37:58.311Z,80.70
2018-07-02T04:40:27.301Z,80.60
2018-07-02T04:42:57.128Z,78.70
2018-07-02T04:45:26.128Z,78.00
2018-07-02T04:47:56.441Z,77.80
2018-07-02T04:50:25.594Z,78.10
2018-07-02T04:52:54.592Z,77.60
2018-07-02T04:55:23.586Z,77.50
2018-07-02T04:57:53.222Z,75.90
2018-07-02T05:00:24.407Z,75.60
2018-07-02T05:02:54.235Z,75.60
2018-07-02T05:05:24.802Z,75.50
2018-07-02T05:07:56.606Z,78.60
2018-07-02T05:10:26.724Z,92.00
2018-07-02T05:12:55.703Z,75.40
2018-07-02T05:17:55.170Z,73.60
2018-07-02T05:20:25.744Z,74.20
2018-07-02T05:22:55.048Z,74.20
2018-07-02T05:25:24.832Z,73.10
2018-07-02T05:27:53.898Z,73.40
2018-07-02T05:30:23.713Z,73.00
2018-07-02T05:32:54.250Z,72.70
2018-07-02T05:35:23.292Z,72.60
2018-07-02T05:37:54.098Z,72.50
2018-07-02T05:40:23.058Z,72.20
2018-07-02T05:42:53.386Z,71.70
2018-07-02T05:45:25.821Z,70.80
2018-07-02T05:47:55.565Z,70.50
2018-07-02T05:50:24.761Z,69.60
2018-07-02T05:55:24.363Z,91.70
2018-07-02T05:57:53.371Z,66.60
2018-07-02T06:00:23.135Z,66.00
2018-07-02T06:02:52.490Z,65.10
2018-07-02T06:05:21.453Z,64.90
2018-07-02T06:07:50.517Z,64.30
2018-07-02T06:12:51.812Z,97.10
2018-07-02T06:15:21.700Z,62.10
2018-07-02T06:17:50.700Z,67.40
2018-07-02T06:22:52.907Z,61.20
2018-07-02T06:25:22.421Z,62.50
2018-07-02T06:27:51.386Z,62.10
2018-07-02T06:30:20.394Z,61.00
2018-07-02T06:32:49.348Z,61.50
2018-07-02T06:35:18.815Z,61.00
2018-07-02T06:37:48.735Z,60.20
2018-07-02T06:40:21.922Z,60.20
2018-07-02T06:42:51.438Z,59.30
2018-07-02T06:45:20.430Z,59.50
2018-07-02T06:47:49.371Z,60.60
2018-07-02T06:50:21.098Z,59.80
2018-07-02T06:52:52.036Z,60.20
2018-07-02T06:55:21.051Z,60.30
2018-07-02T06:57:50.125Z,59.90
2018-07-02T07:00:19.241Z,59.30
2018-07-02T07:02:50.925Z,59.30
2018-07-02T07:05:20.583Z,59.70
2018-07-02T07:07:49.551Z,60.10
2018-07-02T07:10:21.120Z,59.10
2018-07-02T07:12:50.060Z,58.90
2018-07-02T07:15:19.889Z,58.00
2018-07-02T07:17:48.857Z,57.90
2018-07-02T07:20:17.902Z,57.40
2018-07-02T07:22:48.867Z,57.50
2018-07-02T07:25:18.577Z,57.90
2018-07-02T07:27:47.536Z,56.90
2018-07-02T07:30:16.591Z,56.20
2018-07-02T07:32:48.450Z,56.80
2018-07-02T07:35:17.448Z,56.40
2018-07-02T07:37:47.571Z,56.50
2018-07-02T07:40:16.556Z,55.80
2018-07-02T07:42:45.528Z,55.50
2018-07-02T07:45:15.767Z,55.00
2018-07-02T07:47:46.805Z,53.70
2018-07-02T07:50:18.051Z,52.60
2018-07-02T07:52:47.014Z,50.30
2018-07-02T07:55:16.613Z,48.10
2018-07-02T07:57:46.187Z,45.90
2018-07-02T08:00:16.662Z,43.00
2018-07-02T08:02:46.696Z,39.10
2018-07-02T08:05:18.020Z,35.80
2018-07-02T08:10:15.596Z,29.80
2018-07-02T08:12:44.646Z,28.30
2018-07-02T08:15:13.624Z,27.30
2018-07-02T08:17:42.884Z,26.30
2018-07-02T08:20:14.176Z,25.20
2018-07-02T08:25:15.108Z,25.00
2018-07-02T08:27:44.072Z,26.20
2018-07-02T08:30:13.067Z,25.40
2018-07-02T08:32:42.022Z,24.50
2018-07-02T08:35:11.472Z,25.20
2018-07-02T08:37:42.800Z,25.40
2018-07-02T08:40:12.501Z,26.90
2018-07-02T08:42:42.310Z,27.70
2018-07-02T08:45:12.261Z,28.80
2018-07-02T08:47:42.221Z,30.00
2018-07-02T08:50:12.290Z,32.00
2018-07-02T08:52:43.325Z,33.90
2018-07-02T08:55:13.219Z,34.80
2018-07-02T08:57:42.182Z,35.60
2018-07-02T09:00:11.161Z,35.40
2018-07-02T09:02:41.357Z,36.90
2018-07-02T09:05:11.982Z,37.40
2018-07-02T09:07:51.487Z,38.20
2018-07-02T09:10:21.927Z,38.20
2018-07-02T09:12:52.151Z,38.50
2018-07-02T09:15:21.538Z,39.30
2018-07-02T09:17:50.485Z,39.10
2018-07-02T09:20:20.814Z,39.60
2018-07-02T09:22:49.791Z,39.50
2018-07-02T09:25:19.541Z,39.10
2018-07-02T09:27:49.722Z,39.30
2018-07-02T09:30:18.701Z,38.90
2018-07-02T09:32:48.302Z,38.00
2018-07-02T09:35:17.304Z,39.10
2018-07-02T09:37:46.254Z,38.10
2018-07-02T09:40:16.878Z,38.90
2018-07-02T09:42:51.075Z,38.60
2018-07-02T09:45:20.018Z,37.80
2018-07-02T09:47:49.777Z,37.70
2018-07-02T09:50:18.823Z,36.00
2018-07-02T09:52:47.772Z,35.10
2018-07-02T09:55:17.577Z,32.60
2018-07-02T09:57:48.406Z,30.70
2018-07-02T10:00:17.404Z,29.30
2018-07-02T10:02:46.372Z,29.90
2018-07-02T10:05:17.731Z,28.70
2018-07-02T10:07:47.179Z,29.20
2018-07-02T10:10:17.273Z,29.50
2018-07-02T10:12:48.055Z,26.60
2018-07-02T10:15:17.538Z,27.40
2018-07-02T10:17:46.514Z,28.70
2018-07-02T10:20:15.513Z,29.30
2018-07-02T10:22:44.530Z,50.10
2018-07-02T10:27:42.899Z,29.40
2018-07-02T10:30:13.233Z,28.80
2018-07-02T10:35:11.742Z,26.90
2018-07-02T10:40:09.330Z,26.80
2018-07-02T10:45:07.721Z,59.50
2018-07-02T10:47:40.578Z,27.40
2018-07-02T10:50:09.547Z,28.80
2018-07-02T10:52:42.390Z,30.40
2018-07-02T10:55:11.813Z,31.00
2018-07-02T10:57:40.791Z,32.30
2018-07-02T11:00:09.743Z,33.10
2018-07-02T11:02:39.380Z,33.00
2018-07-02T11:05:08.450Z,34.00
2018-07-02T11:07:37.429Z,33.60
2018-07-02T11:10:06.416Z,33.90
2018-07-02T11:12:36.674Z,35.60
2018-07-02T11:15:06.236Z,34.30
2018-07-02T11:17:35.219Z,34.50
2018-07-02T11:20:04.217Z,35.20
2018-07-02T11:25:01.992Z,62.60
2018-07-02T11:27:30.964Z,35.40
2018-07-02T11:30:00.745Z,36.10
2018-07-02T11:32:31.589Z,36.00
2018-07-02T11:35:03.243Z,34.70
2018-07-02T11:37:32.271Z,36.30
2018-07-02T11:40:01.315Z,35.70
2018-07-02T11:42:30.272Z,35.40
2018-07-02T11:44:59.822Z,35.00
2018-07-02T11:47:29.015Z,35.10
2018-07-02T11:49:57.973Z,34.10
2018-07-02T11:54:56.848Z,34.40
2018-07-02T11:57:25.936Z,33.10
2018-07-02T11:59:54.875Z,33.30
2018-07-02T12:02:24.679Z,34.30
2018-07-02T12:04:53.644Z,34.60
2018-07-02T12:07:22.646Z,34.50
2018-07-02T12:09:51.647Z,33.80
2018-07-02T12:12:24.345Z,34.40
2018-07-02T12:14:53.677Z,33.20
2018-07-02T12:17:22.671Z,33.70
2018-07-02T12:19:51.613Z,33.50
2018-07-02T12:22:21.358Z,33.70
2018-07-02T12:24:51.118Z,31.20
2018-07-02T12:27:20.137Z,31.50
2018-07-02T12:29:50.339Z,32.20
2018-07-02T12:32:19.316Z,32.00
2018-07-02T12:34:48.688Z,32.00
2018-07-02T12:37:18.511Z,31.80
2018-07-02T12:39:47.468Z,31.20
2018-07-02T12:42:18.025Z,31.10
2018-07-02T12:44:47.003Z,29.80
2018-07-02T12:47:15.998Z,30.60
2018-07-02T12:49:46.143Z,31.00
2018-07-02T12:52:15.169Z,31.20
2018-07-02T12:57:12.722Z,30.50
2018-07-02T12:59:42.098Z,30.10
2018-07-02T13:02:11.078Z,30.30
2018-07-02T13:04:40.031Z,30.70
2018-07-02T13:07:09.059Z,30.70
2018-07-02T13:09:38.004Z,31.20
2018-07-02T13:12:07.059Z,29.50
2018-07-02T13:14:36.001Z,29.40
2018-07-02T13:17:05.279Z,29.90
2018-07-02T13:19:34.300Z,31.20
2018-07-02T13:22:03.356Z,30.30
2018-07-02T13:24:33.478Z,30.00
2018-07-02T13:27:02.468Z,30.30
2018-07-02T13:29:31.527Z,30.70
2018-07-02T13:32:01.706Z,30.20
2018-07-02T13:34:30.891Z,31.00
2018-07-02T13:37:05.473Z,30.20
2018-07-02T13:39:34.577Z,29.70
2018-07-02T13:42:04.548Z,30.30
2018-07-02T13:44:33.611Z,30.30
2018-07-02T13:47:02.668Z,29.90
2018-07-02T13:49:31.728Z,30.10
2018-07-02T13:52:00.749Z,29.50
2018-07-02T13:54:30.552Z,30.00
2018-07-02T13:57:01.292Z,29.90
2018-07-02T13:59:30.557Z,30.60
2018-07-02T14:02:01.080Z,30.00
2018-07-02T14:04:37.126Z,31.00
2018-07-02T14:07:06.367Z,30.80
2018-07-02T14:09:35.577Z,30.70
2018-07-02T14:12:04.759Z,31.20
2018-07-02T14:14:33.972Z,30.40
2018-07-02T14:17:07.768Z,30.00
2018-07-02T14:19:36.758Z,29.80
2018-07-02T14:22:17.536Z,30.30
2018-07-02T14:24:48.348Z,30.90
2018-07-02T14:27:17.765Z,30.00
2018-07-02T14:29:46.778Z,30.00
2018-07-02T14:32:15.869Z,29.80
2018-07-02T14:34:44.871Z,30.80
2018-07-02T14:37:13.916Z,29.80
2018-07-02T14:39:42.920Z,29.80
2018-07-02T14:42:12.529Z,30.10
2018-07-02T14:44:41.647Z,29.80
2018-07-02T14:47:10.545Z,30.30
2018-07-02T14:49:39.554Z,29.90
2018-07-02T14:52:09.351Z,29.90
2018-07-02T14:54:38.360Z,30.20
2018-07-02T14:57:07.331Z,30.20
2018-07-02T14:59:37.159Z,30.20
2018-07-02T15:02:06.252Z,30.30
2018-07-02T15:04:36.104Z,29.90
2018-07-02T15:07:05.156Z,30.00
2018-07-02T15:09:35.197Z,29.90
2018-07-02T15:12:04.160Z,29.70
2018-07-02T15:14:33.222Z,30.00
2018-07-02T15:17:02.232Z,30.00
2018-07-02T15:19:32.882Z,30.00
2018-07-02T15:22:02.906Z,29.90
2018-07-02T15:24:31.916Z,29.80
2018-07-02T15:27:01.328Z,30.20
2018-07-02T15:29:31.327Z,30.20
2018-07-02T15:32:00.984Z,30.20
2018-07-02T15:34:30.139Z,30.10
2018-07-02T15:36:59.148Z,30.30
2018-07-02T15:39:28.243Z,29.80
2018-07-02T15:41:57.343Z,30.00
2018-07-02T15:44:27.089Z,51.20
2018-07-02T15:46:56.162Z,29.70
2018-07-02T15:49:25.156Z,30.10
2018-07-02T15:51:54.263Z,30.00
2018-07-02T15:54:23.999Z,30.20
2018-07-02T15:56:52.992Z,29.60
2018-07-02T15:59:27.139Z,30.00
2018-07-02T16:01:56.535Z,30.00
2018-07-02T16:04:26.236Z,30.00
2018-07-02T16:06:55.361Z,30.00
2018-07-02T16:09:24.443Z,29.90
2018-07-02T16:11:53.414Z,29.70
2018-07-02T16:14:24.220Z,29.70
2018-07-02T16:16:54.091Z,30.00
2018-07-02T16:19:23.162Z,29.80
2018-07-02T16:21:52.203Z,29.80
2018-07-02T16:24:21.223Z,30.30
2018-07-02T16:26:50.216Z,30.60
2018-07-02T16:29:19.254Z,30.10
2018-07-02T16:31:48.340Z,30.00
2018-07-02T16:34:17.353Z,29.70
2018-07-02T16:36:46.344Z,29.70
2018-07-02T16:39:15.882Z,30.20
2018-07-02T16:41:44.885Z,52.70
2018-07-02T16:46:42.559Z,30.80
2018-07-02T16:49:11.544Z,31.00
2018-07-02T16:51:40.685Z,30.40
2018-07-02T16:54:09.755Z,59.50
2018-07-02T16:56:38.824Z,57.30
2018-07-02T16:59:07.811Z,58.10
2018-07-02T17:01:36.940Z,59.50
2018-07-02T17:11:32.313Z,37.30
2018-07-02T17:14:02.437Z,53.30
2018-07-02T17:16:31.446Z,61.70
2018-07-02T17:19:00.449Z,60.50
2018-07-02T17:21:30.791Z,69.80
2018-07-02T17:23:59.832Z,69.20
2018-07-02T17:26:29.923Z,67.50
2018-07-02T17:29:00.627Z,31.00
2018-07-02T17:31:30.951Z,30.90
2018-07-02T17:41:29.398Z,79.40
2018-07-02T17:43:58.384Z,32.60
2018-07-02T19:02:17.778Z,87.60
2018-07-02T19:04:46.751Z,41.80
2018-07-02T19:07:16.983Z,42.30
2018-07-02T19:09:45.957Z,43.30
2018-07-02T19:12:14.945Z,43.70
2018-07-02T19:14:43.909Z,43.60
2018-07-02T19:17:14.811Z,43.70
2018-07-02T19:19:45.661Z,43.50
2018-07-02T19:22:14.662Z,43.80
2018-07-02T19:24:43.688Z,43.80
2018-07-02T19:27:12.735Z,44.70
2018-07-02T19:29:41.790Z,46.80
2018-07-02T19:32:10.728Z,46.70
2018-07-02T19:34:39.694Z,47.60
2018-07-02T19:44:34.879Z,93.00
2018-07-02T19:47:03.892Z,47.60
2018-07-02T19:49:32.895Z,47.70
2018-07-02T19:52:01.933Z,48.50
2018-07-02T19:54:31.683Z,49.50
2018-07-02T19:57:01.780Z,49.30
2018-07-02T19:59:35.909Z,48.90
2018-07-02T20:02:05.142Z,49.90
2018-07-02T20:04:35.383Z,49.90
2018-07-02T20:07:05.067Z,50.00
2018-07-02T20:09:35.209Z,50.20
2018-07-02T20:12:04.794Z,50.50
2018-07-02T20:14:36.682Z,51.10
2018-07-02T20:17:06.715Z,51.00
2018-07-02T20:19:35.916Z,50.50
2018-07-02T20:22:05.307Z,50.20
2018-07-02T20:24:34.528Z,51.00
2018-07-02T20:27:03.773Z,52.40
2018-07-02T20:29:32.930Z,52.90
2018-07-02T20:32:02.135Z,54.00
2018-07-02T20:34:32.994Z,55.20
2018-07-02T20:37:06.136Z,55.60
2018-07-02T20:39:37.161Z,56.00
2018-07-02T20:42:06.374Z,55.40
2018-07-02T20:44:35.583Z,54.20
2018-07-02T20:47:05.173Z,54.20
2018-07-02T20:49:34.360Z,54.60
2018-07-02T20:52:03.567Z,54.90
2018-07-02T20:54:33.293Z,54.80
2018-07-02T20:57:04.556Z,54.50
2018-07-02T20:59:33.767Z,54.70
2018-07-02T21:02:03.470Z,55.40
2018-07-02T21:04:33.208Z,55.30
2018-07-02T21:07:04.398Z,55.50
2018-07-02T21:09:33.586Z,55.50
2018-07-02T21:12:03.206Z,55.80
2018-07-02T21:14:32.914Z,56.20
2018-07-02T21:17:03.433Z,56.20
2018-07-02T21:19:39.416Z,56.20
2018-07-02T21:22:09.288Z,56.30
2018-07-02T21:24:38.461Z,57.30
2018-07-02T21:27:09.170Z,57.80
2018-07-02T21:29:38.948Z,57.20
2018-07-02T21:32:08.285Z,57.20
2018-07-02T21:34:37.622Z,57.10
2018-07-02T21:37:07.166Z,58.30
2018-07-02T21:39:36.438Z,59.10
2018-07-02T21:42:06.750Z,58.50
2018-07-02T21:44:35.961Z,58.00
2018-07-02T21:47:08.125Z,58.70
2018-07-02T21:49:37.357Z,58.60
2018-07-02T21:52:07.089Z,58.60
2018-07-02T21:54:36.986Z,58.40
2018-07-02T21:57:06.325Z,58.70
2018-07-02T21:59:35.524Z,59.10
2018-07-02T22:02:05.409Z,59.10
2018-07-02T22:04:35.124Z,59.70
2018-07-02T22:07:05.635Z,59.80
2018-07-02T22:09:35.262Z,59.20
2018-07-02T22:12:07.442Z,59.70
2018-07-02T22:14:37.906Z,60.30
2018-07-02T22:17:07.084Z,60.10
2018-07-02T22:19:37.146Z,60.40
2018-07-02T22:22:07.505Z,60.50
2018-07-02T22:24:36.587Z,60.40
2018-07-02T22:27:05.828Z,60.10
2018-07-02T22:29:34.896Z,59.90
2018-07-02T22:32:04.428Z,59.90
2018-07-02T22:34:34.401Z,60.60
2018-07-02T22:37:03.435Z,61.30
2018-07-02T22:39:32.927Z,61.60
2018-07-02T22:42:04.554Z,61.40
2018-07-02T22:44:33.572Z,61.80
2018-07-02T22:47:02.568Z,61.30
2018-07-02T22:49:31.605Z,62.00
2018-07-02T22:52:01.348Z,61.80
2018-07-02T22:54:34.451Z,61.70
2018-07-02T22:57:03.472Z,62.20
2018-07-02T22:59:32.934Z,63.80
2018-07-02T23:02:01.956Z,65.10
2018-07-02T23:04:31.031Z,64.20
2018-07-02T23:07:01.205Z,64.20
2018-07-02T23:09:30.298Z,64.40
2018-07-02T23:12:00.448Z,65.00
2018-07-02T23:14:30.628Z,64.30
2018-07-02T23:16:59.694Z,64.40
2018-07-02T23:19:29.824Z,64.90
2018-07-02T23:21:58.867Z,65.00
2018-07-02T23:24:27.905Z,65.30
2018-07-02T23:26:58.110Z,65.30
2018-07-02T23:29:27.939Z,65.50
2018-07-02T23:31:56.952Z,65.50
2018-07-02T23:34:28.128Z,65.10
2018-07-02T23:36:58.776Z,64.60
2018-07-02T23:39:27.785Z,64.70
2018-07-02T23:41:58.217Z,64.90
2018-07-02T23:44:28.296Z,65.80
2018-07-02T23:46:58.197Z,66.90
2018-07-02T23:49:27.653Z,68.60
2018-07-02T23:51:57.274Z,69.30
2018-07-02T23:54:26.853Z,69.30
2018-07-02T23:56:56.264Z,70.40
2018-07-02T23:59:25.304Z,71.40
